Time,TemperatureF,DewpointF,PressureIn,WindDirection,WindDirectionDegrees,WindSpeedMPH,WindSpeedGustMPH,Humidity,HourlyPrecipIn,Conditions,Clouds,dailyrainin,SoftwareType,DateUTC
2013-09-02 00:10:00,75.8,75.0,29.90,SE,128,0.0,0.0,96,0.00,,,0.00,weatherlink.com 1.10,2013-09-02 05:10:00,
2013-09-02 00:25:00,75.6,75.0,29.90,SE,128,0.0,0.0,97,0.00,,,0.00,weatherlink.com 1.10,2013-09-02 05:25:00,
2013-09-02 00:40:00,75.3,74.0,29.89,SE,128,0.0,3.0,97,0.00,,,0.00,weatherlink.com 1.10,2013-09-02 05:40:00,
2013-09-02 00:55:00,75.1,74.0,29.90,SE,128,0.0,0.0,97,0.00,,,0.00,weatherlink.com 1.10,2013-09-02 05:55:00,
2013-09-02 01:10:00,75.0,74.0,29.89,SE,128,0.0,1.0,97,0.00,,,0.00,weatherlink.com 1.10,2013-09-02 06:10:00,
2013-09-02 01:25:00,74.9,74.0,29.89,SE,128,0.0,0.0,97,0.00,,,0.00,weatherlink.com 1.10,2013-09-02 06:25:00,
2013-09-02 01:40:00,74.5,74.0,29.89,SE,128,0.0,1.0,97,0.00,,,0.00,weatherlink.com 1.10,2013-09-02 06:40:00,
2013-09-02 01:55:00,74.6,74.0,29.89,SE,128,0.0,1.0,98,0.00,,,0.00,weatherlink.com 1.10,2013-09-02 06:55:00,
2013-09-02 02:10:00,74.4,74.0,29.89,SE,128,0.0,0.0,98,0.00,,,0.00,weatherlink.com 1.10,2013-09-02 07:10:00,
2013-09-02 02:25:00,74.4,74.0,29.89,SE,128,0.0,0.0,98,0.00,,,0.00,weatherlink.com 1.10,2013-09-02 07:25:00,
2013-09-02 02:40:00,74.3,74.0,29.89,SE,128,0.0,0.0,98,0.00,,,0.00,weatherlink.com 1.10,2013-09-02 07:40:00,
2013-09-02 02:55:00,74.2,74.0,29.89,SE,128,0.0,0.0,98,0.00,,,0.00,weatherlink.com 1.10,2013-09-02 07:55:00,
2013-09-02 03:10:00,74.1,74.0,29.89,SE,128,0.0,0.0,98,0.00,,,0.00,weatherlink.com 1.10,2013-09-02 08:10:00,
2013-09-02 03:25:00,74.0,73.0,29.89,SE,128,0.0,0.0,98,0.00,,,0.00,weatherlink.com 1.10,2013-09-02 08:25:00,
2013-09-02 03:40:00,73.9,73.0,29.90,SE,128,0.0,1.0,98,0.00,,,0.00,weatherlink.com 1.10,2013-09-02 08:40:00,
2013-09-02 03:55:00,73.7,73.0,29.90,SE,128,0.0,1.0,99,0.00,,,0.00,weatherlink.com 1.10,2013-09-02 08:55:00,
2013-09-02 04:10:00,73.8,74.0,29.90,SE,128,0.0,1.0,99,0.00,,,0.00,weatherlink.com 1.10,2013-09-02 09:10:00,
2013-09-02 04:25:00,73.5,73.0,29.90,SE,128,0.0,0.0,98,0.00,,,0.00,weatherlink.com 1.10,2013-09-02 09:25:00,
2013-09-02 04:40:00,73.2,73.0,29.90,SE,128,1.0,1.0,98,0.00,,,0.00,weatherlink.com 1.10,2013-09-02 09:40:00,
2013-09-02 04:55:00,73.0,72.0,29.90,SE,128,0.0,0.0,98,0.00,,,0.00,weatherlink.com 1.10,2013-09-02 09:55:00,
2013-09-02 05:10:00,72.8,72.0,29.90,SE,128,0.0,0.0,98,0.00,,,0.00,weatherlink.com 1.10,2013-09-02 10:10:00,
2013-09-02 05:25:00,72.4,72.0,29.90,SE,128,0.0,1.0,99,0.00,,,0.00,weatherlink.com 1.10,2013-09-02 10:25:00,
2013-09-02 05:40:00,72.5,72.0,29.91,SE,128,0.0,0.0,99,0.00,,,0.00,weatherlink.com 1.10,2013-09-02 10:40:00,
2013-09-02 05:55:00,72.1,72.0,29.91,SE,128,0.0,0.0,98,0.00,,,0.00,weatherlink.com 1.10,2013-09-02 10:55:00,
2013-09-02 06:10:00,71.9,72.0,29.91,SE,128,0.0,1.0,99,0.00,,,0.00,weatherlink.com 1.10,2013-09-02 11:10:00,
2013-09-02 06:25:00,71.9,72.0,29.91,SE,128,0.0,0.0,99,0.00,,,0.00,weatherlink.com 1.10,2013-09-02 11:25:00,
2013-09-02 06:40:00,71.7,71.0,29.91,SE,128,0.0,0.0,99,0.00,,,0.00,weatherlink.com 1.10,2013-09-02 11:40:00,
2013-09-02 06:55:00,71.6,71.0,29.92,SE,128,0.0,0.0,99,0.00,,,0.00,weatherlink.com 1.10,2013-09-02 11:55:00,
2013-09-02 07:10:00,71.7,71.0,29.92,SE,128,0.0,0.0,99,0.00,,,0.00,weatherlink.com 1.10,2013-09-02 12:10:00,
2013-09-02 07:25:00,71.8,72.0,29.92,SE,128,0.0,0.0,99,0.00,,,0.00,weatherlink.com 1.10,2013-09-02 12:25:00,
2013-09-02 07:41:00,72.3,72.0,29.93,SE,128,0.0,0.0,99,0.00,,,0.00,weatherlink.com 1.10,2013-09-02 12:41:00,
2013-09-02 07:56:00,73.2,73.0,29.93,SE,128,0.0,0.0,100,0.00,,,0.00,weatherlink.com 1.10,2013-09-02 12:56:00,
2013-09-02 08:11:00,74.5,75.0,29.94,SE,129,0.0,1.0,100,0.00,,,0.00,weatherlink.com 1.10,2013-09-02 13:11:00,
2013-09-02 08:26:00,75.8,76.0,29.94,West,266,3.0,3.0,100,0.00,,,0.00,weatherlink.com 1.10,2013-09-02 13:26:00,
2013-09-02 08:41:00,77.6,77.0,29.94,WNW,293,1.0,4.0,99,0.00,,,0.00,weatherlink.com 1.10,2013-09-02 13:41:00,
2013-09-02 08:56:00,80.2,78.0,29.94,WNW,297,2.0,5.0,93,0.00,,,0.00,weatherlink.com 1.10,2013-09-02 13:56:00,
2013-09-02 09:11:00,82.2,79.0,29.95,WNW,296,2.0,8.0,89,0.00,,,0.00,weatherlink.com 1.10,2013-09-02 14:11:00,
2013-09-02 09:26:00,83.0,79.0,29.95,West,277,2.0,7.0,86,0.00,,,0.00,weatherlink.com 1.10,2013-09-02 14:26:00,
2013-09-02 09:41:00,84.0,79.0,29.95,NW,319,1.0,9.0,85,0.00,,,0.00,weatherlink.com 1.10,2013-09-02 14:41:00,
2013-09-02 09:56:00,85.0,79.0,29.95,West,280,3.0,6.0,83,0.00,,,0.00,weatherlink.com 1.10,2013-09-02 14:56:00,
2013-09-02 10:11:00,85.4,78.0,29.96,WNW,288,5.0,10.0,78,0.00,,,0.00,weatherlink.com 1.10,2013-09-02 15:11:00,
2013-09-02 10:26:00,86.4,78.0,29.97,SW,236,4.0,8.0,76,0.00,,,0.00,weatherlink.com 1.10,2013-09-02 15:26:00,
2013-09-02 10:41:00,86.4,76.0,29.97,WNW,297,2.0,10.0,72,0.00,,,0.00,weatherlink.com 1.10,2013-09-02 15:41:00,
2013-09-02 10:56:00,87.6,77.0,29.97,WNW,283,3.0,10.0,70,0.00,,,0.00,weatherlink.com 1.10,2013-09-02 15:56:00,
2013-09-02 11:11:00,87.0,76.0,29.97,WNW,300,7.0,10.0,70,0.00,,,0.00,weatherlink.com 1.10,2013-09-02 16:11:00,
2013-09-02 11:26:00,88.4,77.0,29.96,SW,234,4.0,8.0,68,0.00,,,0.00,weatherlink.com 1.10,2013-09-02 16:26:00,
2013-09-02 11:41:00,87.9,76.0,29.96,West,267,1.0,7.0,68,0.00,,,0.00,weatherlink.com 1.10,2013-09-02 16:41:00,
2013-09-02 11:56:00,89.0,76.0,29.96,South,185,3.0,8.0,66,0.00,,,0.00,weatherlink.com 1.10,2013-09-02 16:56:00,
2013-09-02 12:11:00,89.3,76.0,29.96,SW,216,3.0,12.0,64,0.00,,,0.00,weatherlink.com 1.10,2013-09-02 17:11:00,
2013-09-02 12:26:00,89.2,76.0,29.95,WNW,302,6.0,11.0,65,0.00,,,0.00,weatherlink.com 1.10,2013-09-02 17:26:00,
2013-09-02 12:41:00,89.7,76.0,29.95,West,276,3.0,8.0,64,0.00,,,0.00,weatherlink.com 1.10,2013-09-02 17:41:00,
2013-09-02 12:56:00,90.1,75.0,29.95,WNW,296,4.0,9.0,62,0.00,,,0.00,weatherlink.com 1.10,2013-09-02 17:56:00,
2013-09-02 13:11:00,90.2,75.0,29.94,South,190,2.0,7.0,62,0.00,,,0.00,weatherlink.com 1.10,2013-09-02 18:11:00,
2013-09-02 13:26:00,90.7,77.0,29.93,SW,217,2.0,6.0,64,0.00,,,0.00,weatherlink.com 1.10,2013-09-02 18:26:00,
2013-09-02 13:41:00,91.7,76.0,29.92,WSW,240,3.0,6.0,60,0.00,,,0.00,weatherlink.com 1.10,2013-09-02 18:41:00,
2013-09-02 13:56:00,91.7,75.0,29.91,WNW,288,2.0,8.0,58,0.00,,,0.00,weatherlink.com 1.10,2013-09-02 18:56:00,
2013-09-02 14:26:00,92.1,75.0,29.90,SSW,211,2.0,8.0,58,0.00,,,0.00,weatherlink.com 1.10,2013-09-02 19:26:00,
2013-09-02 14:41:00,92.2,76.0,29.89,West,273,2.0,7.0,59,0.00,,,0.00,weatherlink.com 1.10,2013-09-02 19:41:00,
2013-09-02 14:57:00,93.3,75.0,29.88,West,275,0.0,6.0,56,0.00,,,0.00,weatherlink.com 1.10,2013-09-02 19:57:00,
2013-09-02 15:12:00,93.9,74.0,29.88,WSW,246,9.0,10.0,53,0.00,,,0.00,weatherlink.com 1.10,2013-09-02 20:12:00,
2013-09-02 15:27:00,92.9,74.0,29.87,West,276,0.0,7.0,55,0.00,,,0.00,weatherlink.com 1.10,2013-09-02 20:27:00,
2013-09-02 15:42:00,93.7,75.0,29.86,West,263,2.0,8.0,54,0.00,,,0.00,weatherlink.com 1.10,2013-09-02 20:42:00,
2013-09-02 15:57:00,93.7,75.0,29.85,South,181,2.0,9.0,55,0.00,,,0.00,weatherlink.com 1.10,2013-09-02 20:57:00,
2013-09-02 16:12:00,94.0,75.0,29.84,SW,214,1.0,6.0,54,0.00,,,0.00,weatherlink.com 1.10,2013-09-02 21:12:00,
2013-09-02 16:27:00,94.7,75.0,29.84,WNW,299,2.0,7.0,53,0.00,,,0.00,weatherlink.com 1.10,2013-09-02 21:27:00,
2013-09-02 16:42:00,94.2,75.0,29.84,West,277,4.0,8.0,53,0.00,,,0.00,weatherlink.com 1.10,2013-09-02 21:42:00,
2013-09-02 16:57:00,94.1,74.0,29.84,West,281,2.0,6.0,53,0.00,,,0.00,weatherlink.com 1.10,2013-09-02 21:57:00,
2013-09-02 17:12:00,93.8,74.0,29.84,SSE,154,0.0,3.0,52,0.00,,,0.00,weatherlink.com 1.10,2013-09-02 22:12:00,
2013-09-02 17:27:00,94.7,76.0,29.84,WSW,246,2.0,5.0,54,0.00,,,0.00,weatherlink.com 1.10,2013-09-02 22:27:00,
2013-09-02 17:42:00,94.9,75.0,29.85,SSW,207,0.0,5.0,52,0.00,,,0.00,weatherlink.com 1.10,2013-09-02 22:42:00,
2013-09-02 17:57:00,95.0,75.0,29.84,West,270,2.0,4.0,53,0.00,,,0.00,weatherlink.com 1.10,2013-09-02 22:57:00,
2013-09-02 18:12:00,94.9,76.0,29.84,West,279,0.0,5.0,55,0.00,,,0.00,weatherlink.com 1.10,2013-09-02 23:12:00,
2013-09-02 18:27:00,93.7,75.0,29.84,West,279,0.0,3.0,55,0.00,,,0.00,weatherlink.com 1.10,2013-09-02 23:27:00,
2013-09-02 18:42:00,91.3,77.0,29.84,West,279,0.0,1.0,64,0.00,,,0.00,weatherlink.com 1.10,2013-09-02 23:42:00,
2013-09-02 18:57:00,88.4,78.0,29.84,West,279,0.0,0.0,70,0.00,,,0.00,weatherlink.com 1.10,2013-09-02 23:57:00,
2013-09-02 19:12:00,86.3,78.0,29.84,West,279,0.0,0.0,75,0.00,,,0.00,weatherlink.com 1.10,2013-09-03 00:12:00,
2013-09-02 19:27:00,84.7,78.0,29.84,West,279,0.0,0.0,79,0.00,,,0.00,weatherlink.com 1.10,2013-09-03 00:27:00,
2013-09-02 19:42:00,83.0,77.0,29.84,West,279,0.0,0.0,83,0.00,,,0.00,weatherlink.com 1.10,2013-09-03 00:42:00,
2013-09-02 19:57:00,81.6,76.0,29.85,SW,217,0.0,3.0,83,0.00,,,0.00,weatherlink.com 1.10,2013-09-03 00:57:00,
2013-09-02 20:12:00,81.0,77.0,29.86,SW,217,0.0,1.0,86,0.00,,,0.00,weatherlink.com 1.10,2013-09-03 01:12:00,
2013-09-02 20:27:00,80.2,76.0,29.87,SW,217,0.0,1.0,87,0.00,,,0.00,weatherlink.com 1.10,2013-09-03 01:27:00,
2013-09-02 20:42:00,79.7,76.0,29.87,SW,218,0.0,1.0,88,0.00,,,0.00,weatherlink.com 1.10,2013-09-03 01:42:00,
2013-09-02 20:57:00,79.4,76.0,29.88,SW,218,0.0,1.0,89,0.00,,,0.00,weatherlink.com 1.10,2013-09-03 01:57:00,
2013-09-02 21:12:00,79.0,76.0,29.88,SW,218,0.0,0.0,89,0.00,,,0.00,weatherlink.com 1.10,2013-09-03 02:12:00,
2013-09-02 21:27:00,78.5,75.0,29.88,SW,218,0.0,0.0,90,0.00,,,0.00,weatherlink.com 1.10,2013-09-03 02:27:00,
2013-09-02 21:42:00,77.8,75.0,29.89,SW,218,0.0,0.0,92,0.00,,,0.00,weatherlink.com 1.10,2013-09-03 02:42:00,
2013-09-02 21:57:00,77.4,75.0,29.89,SW,218,0.0,0.0,93,0.00,,,0.00,weatherlink.com 1.10,2013-09-03 02:57:00,
2013-09-02 22:12:00,76.9,75.0,29.90,SW,218,0.0,0.0,93,0.00,,,0.00,weatherlink.com 1.10,2013-09-03 03:12:00,
2013-09-02 22:27:00,76.6,75.0,29.90,SW,218,0.0,0.0,94,0.00,,,0.00,weatherlink.com 1.10,2013-09-03 03:27:00,
2013-09-02 22:42:00,76.2,75.0,29.90,SW,218,0.0,0.0,95,0.00,,,0.00,weatherlink.com 1.10,2013-09-03 03:42:00,
2013-09-02 22:57:00,76.0,75.0,29.90,SW,218,0.0,0.0,95,0.00,,,0.00,weatherlink.com 1.10,2013-09-03 03:57:00,
2013-09-02 23:12:00,75.8,74.0,29.90,SW,218,0.0,0.0,95,0.00,,,0.00,weatherlink.com 1.10,2013-09-03 04:12:00,
2013-09-02 23:27:00,75.6,74.0,29.90,SW,218,0.0,0.0,95,0.00,,,0.00,weatherlink.com 1.10,2013-09-03 04:27:00,
2013-09-02 23:42:00,75.3,74.0,29.90,SW,218,0.0,0.0,95,0.00,,,0.00,weatherlink.com 1.10,2013-09-03 04:42:00,
2013-09-02 23:57:00,75.1,74.0,29.90,SW,218,0.0,0.0,96,0.00,,,0.00,weatherlink.com 1.10,2013-09-03 04:57:00,